sensor_id;sensor_type;location;lat;lon;timestamp;P1;durP1;ratioP1;P2;durP2;ratioP2
16310;SDS011;8264;48.510;8.872;2024-02-21T00:01:14;12.23;;;5.27;;
16310;SDS011;8264;48.510;8.872;2024-02-21T00:03:41;12.23;;;5.10;;
16310;SDS011;8264;48.510;8.872;2024-02-21T00:06:07;8.83;;;4.90;;
16310;SDS011;8264;48.510;8.872;2024-02-21T00:08:34;15.30;;;4.60;;
16310;SDS011;8264;48.510;8.872;2024-02-21T00:11:02;9.33;;;4.73;;
16310;SDS011;8264;48.510;8.872;2024-02-21T00:13:28;10.93;;;4.73;;
16310;SDS011;8264;48.510;8.872;2024-02-21T00:15:55;10.10;;;4.60;;
16310;SDS011;8264;48.510;8.872;2024-02-21T00:18:22;11.53;;;4.70;;
16310;SDS011;8264;48.510;8.872;2024-02-21T00:20:48;9.73;;;4.20;;
16310;SDS011;8264;48.510;8.872;2024-02-21T00:23:15;9.80;;;4.70;;
16310;SDS011;8264;48.510;8.872;2024-02-21T00:25:41;10.93;;;4.50;;
16310;SDS011;8264;48.510;8.872;2024-02-21T00:28:09;8.57;;;4.30;;
16310;SDS011;8264;48.510;8.872;2024-02-21T00:30:36;9.20;;;4.40;;
16310;SDS011;8264;48.510;8.872;2024-02-21T00:33:03;7.50;;;3.90;;
16310;SDS011;8264;48.510;8.872;2024-02-21T00:35:30;8.17;;;3.73;;
16310;SDS011;8264;48.510;8.872;2024-02-21T00:37:57;8.40;;;4.27;;
16310;SDS011;8264;48.510;8.872;2024-02-21T00:40:24;9.00;;;4.07;;
16310;SDS011;8264;48.510;8.872;2024-02-21T00:42:51;9.93;;;4.93;;
16310;SDS011;8264;48.510;8.872;2024-02-21T00:45:19;10.33;;;4.73;;
16310;SDS011;8264;48.510;8.872;2024-02-21T00:47:45;9.40;;;4.33;;
16310;SDS011;8264;48.510;8.872;2024-02-21T00:50:12;10.87;;;4.00;;
16310;SDS011;8264;48.510;8.872;2024-02-21T00:52:38;11.53;;;4.63;;
16310;SDS011;8264;48.510;8.872;2024-02-21T00:55:05;11.43;;;4.43;;
16310;SDS011;8264;48.510;8.872;2024-02-21T00:57:34;9.70;;;4.37;;
16310;SDS011;8264;48.510;8.872;2024-02-21T01:00:00;8.20;;;4.17;;
16310;SDS011;8264;48.510;8.872;2024-02-21T01:02:29;10.23;;;4.53;;
16310;SDS011;8264;48.510;8.872;2024-02-21T01:04:56;10.30;;;4.80;;
16310;SDS011;8264;48.510;8.872;2024-02-21T01:07:23;7.93;;;4.53;;
16310;SDS011;8264;48.510;8.872;2024-02-21T01:09:49;7.90;;;3.80;;
16310;SDS011;8264;48.510;8.872;2024-02-21T01:12:16;7.27;;;4.07;;
16310;SDS011;8264;48.510;8.872;2024-02-21T01:14:43;9.53;;;4.17;;
16310;SDS011;8264;48.510;8.872;2024-02-21T01:17:11;10.03;;;5.00;;
16310;SDS011;8264;48.510;8.872;2024-02-21T01:19:39;12.53;;;4.67;;
16310;SDS011;8264;48.510;8.872;2024-02-21T01:22:05;10.40;;;4.80;;
16310;SDS011;8264;48.510;8.872;2024-02-21T01:24:32;12.30;;;4.97;;
16310;SDS011;8264;48.510;8.872;2024-02-21T01:26:59;10.67;;;5.03;;
16310;SDS011;8264;48.510;8.872;2024-02-21T01:29:26;11.07;;;4.97;;
16310;SDS011;8264;48.510;8.872;2024-02-21T01:31:52;11.03;;;4.50;;
16310;SDS011;8264;48.510;8.872;2024-02-21T01:34:19;11.17;;;4.63;;
16310;SDS011;8264;48.510;8.872;2024-02-21T01:36:47;11.70;;;4.90;;
16310;SDS011;8264;48.510;8.872;2024-02-21T01:39:13;10.07;;;4.60;;
16310;SDS011;8264;48.510;8.872;2024-02-21T01:41:40;11.40;;;4.70;;
16310;SDS011;8264;48.510;8.872;2024-02-21T01:44:06;9.90;;;4.33;;
16310;SDS011;8264;48.510;8.872;2024-02-21T01:46:33;11.87;;;4.97;;
16310;SDS011;8264;48.510;8.872;2024-02-21T01:49:00;9.37;;;4.00;;
16310;SDS011;8264;48.510;8.872;2024-02-21T01:51:27;8.00;;;3.83;;
16310;SDS011;8264;48.510;8.872;2024-02-21T01:53:55;7.77;;;4.33;;
16310;SDS011;8264;48.510;8.872;2024-02-21T01:56:23;10.93;;;4.17;;
16310;SDS011;8264;48.510;8.872;2024-02-21T01:58:50;10.10;;;3.87;;
16310;SDS011;8264;48.510;8.872;2024-02-21T02:01:17;8.67;;;4.20;;
16310;SDS011;8264;48.510;8.872;2024-02-21T02:03:44;6.83;;;3.77;;
16310;SDS011;8264;48.510;8.872;2024-02-21T02:06:11;8.17;;;4.07;;
16310;SDS011;8264;48.510;8.872;2024-02-21T02:08:38;10.47;;;4.00;;
16310;SDS011;8264;48.510;8.872;2024-02-21T02:11:06;8.13;;;3.83;;
16310;SDS011;8264;48.510;8.872;2024-02-21T02:13:33;7.53;;;3.97;;
16310;SDS011;8264;48.510;8.872;2024-02-21T02:15:59;12.10;;;4.33;;
16310;SDS011;8264;48.510;8.872;2024-02-21T02:18:26;9.17;;;4.33;;
16310;SDS011;8264;48.510;8.872;2024-02-21T02:20:52;8.63;;;3.93;;
16310;SDS011;8264;48.510;8.872;2024-02-21T02:23:22;10.87;;;4.33;;
16310;SDS011;8264;48.510;8.872;2024-02-21T02:25:50;7.23;;;4.17;;
16310;SDS011;8264;48.510;8.872;2024-02-21T02:28:17;6.90;;;3.53;;
16310;SDS011;8264;48.510;8.872;2024-02-21T02:30:44;8.83;;;4.30;;
16310;SDS011;8264;48.510;8.872;2024-02-21T02:33:11;9.87;;;3.97;;
16310;SDS011;8264;48.510;8.872;2024-02-21T02:35:37;12.23;;;5.00;;
16310;SDS011;8264;48.510;8.872;2024-02-21T02:38:04;10.17;;;4.37;;
16310;SDS011;8264;48.510;8.872;2024-02-21T02:40:33;6.27;;;4.30;;
16310;SDS011;8264;48.510;8.872;2024-02-21T02:43:00;11.03;;;4.40;;
16310;SDS011;8264;48.510;8.872;2024-02-21T02:45:27;9.70;;;4.03;;
16310;SDS011;8264;48.510;8.872;2024-02-21T02:47:53;12.67;;;4.20;;
16310;SDS011;8264;48.510;8.872;2024-02-21T02:50:21;8.07;;;3.90;;
16310;SDS011;8264;48.510;8.872;2024-02-21T02:52:48;12.30;;;4.20;;
16310;SDS011;8264;48.510;8.872;2024-02-21T02:55:15;9.17;;;4.80;;
16310;SDS011;8264;48.510;8.872;2024-02-21T02:57:43;9.47;;;4.40;;
16310;SDS011;8264;48.510;8.872;2024-02-21T03:00:10;10.03;;;4.53;;
16310;SDS011;8264;48.510;8.872;2024-02-21T03:02:38;10.17;;;4.70;;
16310;SDS011;8264;48.510;8.872;2024-02-21T03:05:11;9.80;;;4.90;;
16310;SDS011;8264;48.510;8.872;2024-02-21T03:07:38;11.10;;;5.17;;
16310;SDS011;8264;48.510;8.872;2024-02-21T03:10:05;9.70;;;4.60;;
16310;SDS011;8264;48.510;8.872;2024-02-21T03:12:32;9.13;;;5.10;;
16310;SDS011;8264;48.510;8.872;2024-02-21T03:15:00;10.03;;;4.93;;
16310;SDS011;8264;48.510;8.872;2024-02-21T03:17:27;10.10;;;4.37;;
16310;SDS011;8264;48.510;8.872;2024-02-21T03:19:53;10.43;;;4.13;;
16310;SDS011;8264;48.510;8.872;2024-02-21T03:22:21;6.90;;;4.30;;
16310;SDS011;8264;48.510;8.872;2024-02-21T03:24:47;10.17;;;3.93;;
16310;SDS011;8264;48.510;8.872;2024-02-21T03:27:14;9.17;;;4.20;;
16310;SDS011;8264;48.510;8.872;2024-02-21T03:29:40;7.27;;;3.73;;
16310;SDS011;8264;48.510;8.872;2024-02-21T03:32:08;8.90;;;3.97;;
16310;SDS011;8264;48.510;8.872;2024-02-21T03:34:35;7.17;;;3.83;;
16310;SDS011;8264;48.510;8.872;2024-02-21T03:37:02;10.60;;;4.37;;
16310;SDS011;8264;48.510;8.872;2024-02-21T03:39:30;8.17;;;4.07;;
16310;SDS011;8264;48.510;8.872;2024-02-21T03:41:57;8.97;;;4.27;;
16310;SDS011;8264;48.510;8.872;2024-02-21T03:44:28;8.67;;;4.20;;
16310;SDS011;8264;48.510;8.872;2024-02-21T03:46:54;10.80;;;4.03;;
16310;SDS011;8264;48.510;8.872;2024-02-21T03:49:22;8.13;;;3.43;;
16310;SDS011;8264;48.510;8.872;2024-02-21T03:51:48;10.87;;;4.10;;
16310;SDS011;8264;48.510;8.872;2024-02-21T03:54:15;9.33;;;4.00;;
16310;SDS011;8264;48.510;8.872;2024-02-21T03:56:42;9.07;;;4.07;;
16310;SDS011;8264;48.510;8.872;2024-02-21T03:59:08;8.50;;;4.17;;
16310;SDS011;8264;48.510;8.872;2024-02-21T04:01:35;10.57;;;4.00;;
16310;SDS011;8264;48.510;8.872;2024-02-21T04:04:02;7.93;;;3.37;;
16310;SDS011;8264;48.510;8.872;2024-02-21T04:06:30;9.30;;;3.70;;
16310;SDS011;8264;48.510;8.872;2024-02-21T04:08:57;9.17;;;4.30;;
16310;SDS011;8264;48.510;8.872;2024-02-21T04:11:23;9.47;;;3.83;;
16310;SDS011;8264;48.510;8.872;2024-02-21T04:13:50;6.33;;;3.70;;
16310;SDS011;8264;48.510;8.872;2024-02-21T04:16:16;9.77;;;3.83;;
16310;SDS011;8264;48.510;8.872;2024-02-21T04:18:43;8.83;;;4.07;;
16310;SDS011;8264;48.510;8.872;2024-02-21T04:21:09;10.53;;;4.13;;
16310;SDS011;8264;48.510;8.872;2024-02-21T04:23:37;11.27;;;4.40;;
16310;SDS011;8264;48.510;8.872;2024-02-21T04:26:04;7.27;;;3.47;;
16310;SDS011;8264;48.510;8.872;2024-02-21T04:28:31;14.50;;;4.27;;
16310;SDS011;8264;48.510;8.872;2024-02-21T04:30:57;7.63;;;3.47;;
16310;SDS011;8264;48.510;8.872;2024-02-21T04:33:24;8.77;;;3.80;;
16310;SDS011;8264;48.510;8.872;2024-02-21T04:35:50;5.60;;;3.10;;
16310;SDS011;8264;48.510;8.872;2024-02-21T04:38:19;7.63;;;3.70;;
16310;SDS011;8264;48.510;8.872;2024-02-21T04:40:48;8.13;;;3.67;;
16310;SDS011;8264;48.510;8.872;2024-02-21T04:43:14;10.60;;;3.70;;
16310;SDS011;8264;48.510;8.872;2024-02-21T04:45:41;7.13;;;3.80;;
16310;SDS011;8264;48.510;8.872;2024-02-21T04:48:08;7.87;;;3.37;;
16310;SDS011;8264;48.510;8.872;2024-02-21T04:50:34;9.73;;;3.90;;
16310;SDS011;8264;48.510;8.872;2024-02-21T04:53:01;9.10;;;3.50;;
16310;SDS011;8264;48.510;8.872;2024-02-21T04:55:27;5.50;;;3.77;;
16310;SDS011;8264;48.510;8.872;2024-02-21T04:57:54;7.67;;;3.70;;
16310;SDS011;8264;48.510;8.872;2024-02-21T05:00:21;7.03;;;3.80;;
16310;SDS011;8264;48.510;8.872;2024-02-21T05:02:47;9.63;;;3.33;;
16310;SDS011;8264;48.510;8.872;2024-02-21T05:05:14;8.43;;;3.63;;
16310;SDS011;8264;48.510;8.872;2024-02-21T05:07:42;7.10;;;3.80;;
16310;SDS011;8264;48.510;8.872;2024-02-21T05:10:08;9.57;;;3.73;;
16310;SDS011;8264;48.510;8.872;2024-02-21T05:12:35;6.77;;;3.50;;
16310;SDS011;8264;48.510;8.872;2024-02-21T05:15:03;9.17;;;3.70;;
16310;SDS011;8264;48.510;8.872;2024-02-21T05:17:31;7.40;;;4.07;;
16310;SDS011;8264;48.510;8.872;2024-02-21T05:19:57;7.93;;;3.43;;
16310;SDS011;8264;48.510;8.872;2024-02-21T05:22:24;6.30;;;3.27;;
16310;SDS011;8264;48.510;8.872;2024-02-21T05:24:50;7.73;;;4.03;;
16310;SDS011;8264;48.510;8.872;2024-02-21T05:27:17;6.00;;;3.40;;
16310;SDS011;8264;48.510;8.872;2024-02-21T05:29:43;10.67;;;3.67;;
16310;SDS011;8264;48.510;8.872;2024-02-21T05:32:12;9.03;;;3.70;;
16310;SDS011;8264;48.510;8.872;2024-02-21T05:34:38;9.57;;;3.63;;
16310;SDS011;8264;48.510;8.872;2024-02-21T05:37:05;9.63;;;3.73;;
16310;SDS011;8264;48.510;8.872;2024-02-21T05:39:31;9.53;;;3.60;;
16310;SDS011;8264;48.510;8.872;2024-02-21T05:41:57;8.10;;;3.63;;
16310;SDS011;8264;48.510;8.872;2024-02-21T05:44:24;5.53;;;3.27;;
16310;SDS011;8264;48.510;8.872;2024-02-21T05:46:52;8.90;;;3.20;;
16310;SDS011;8264;48.510;8.872;2024-02-21T05:49:19;5.77;;;3.00;;
16310;SDS011;8264;48.510;8.872;2024-02-21T05:51:46;7.40;;;3.60;;
16310;SDS011;8264;48.510;8.872;2024-02-21T05:54:13;6.73;;;2.80;;
16310;SDS011;8264;48.510;8.872;2024-02-21T05:56:43;8.43;;;3.23;;
16310;SDS011;8264;48.510;8.872;2024-02-21T05:59:10;12.40;;;3.30;;
16310;SDS011;8264;48.510;8.872;2024-02-21T06:01:36;6.17;;;2.80;;
16310;SDS011;8264;48.510;8.872;2024-02-21T06:04:03;7.83;;;3.00;;
16310;SDS011;8264;48.510;8.872;2024-02-21T06:06:31;7.13;;;2.87;;
16310;SDS011;8264;48.510;8.872;2024-02-21T06:08:58;5.73;;;3.13;;
16310;SDS011;8264;48.510;8.872;2024-02-21T06:11:25;8.43;;;3.50;;
16310;SDS011;8264;48.510;8.872;2024-02-21T06:13:51;6.03;;;3.00;;
16310;SDS011;8264;48.510;8.872;2024-02-21T06:16:18;7.37;;;3.20;;
16310;SDS011;8264;48.510;8.872;2024-02-21T06:18:44;9.07;;;3.20;;
16310;SDS011;8264;48.510;8.872;2024-02-21T06:21:11;9.93;;;2.90;;
16310;SDS011;8264;48.510;8.872;2024-02-21T06:23:39;9.50;;;3.40;;
16310;SDS011;8264;48.510;8.872;2024-02-21T06:26:06;6.47;;;2.80;;
16310;SDS011;8264;48.510;8.872;2024-02-21T06:28:32;11.30;;;3.20;;
16310;SDS011;8264;48.510;8.872;2024-02-21T06:30:59;9.40;;;2.90;;
16310;SDS011;8264;48.510;8.872;2024-02-21T06:33:25;6.17;;;2.80;;
16310;SDS011;8264;48.510;8.872;2024-02-21T06:35:52;14.83;;;6.77;;
16310;SDS011;8264;48.510;8.872;2024-02-21T06:38:19;8.27;;;3.70;;
16310;SDS011;8264;48.510;8.872;2024-02-21T06:40:47;7.77;;;3.10;;
16310;SDS011;8264;48.510;8.872;2024-02-21T06:43:17;14.63;;;7.47;;
16310;SDS011;8264;48.510;8.872;2024-02-21T06:45:44;23.17;;;12.20;;
16310;SDS011;8264;48.510;8.872;2024-02-21T06:48:15;10.17;;;3.83;;
16310;SDS011;8264;48.510;8.872;2024-02-21T06:50:42;8.13;;;3.50;;
16310;SDS011;8264;48.510;8.872;2024-02-21T06:53:09;11.33;;;3.47;;
16310;SDS011;8264;48.510;8.872;2024-02-21T06:55:35;8.57;;;3.10;;
16310;SDS011;8264;48.510;8.872;2024-02-21T06:58:03;5.50;;;2.87;;
16310;SDS011;8264;48.510;8.872;2024-02-21T07:00:30;8.43;;;2.97;;
16310;SDS011;8264;48.510;8.872;2024-02-21T07:02:57;8.67;;;3.63;;
16310;SDS011;8264;48.510;8.872;2024-02-21T07:05:23;6.20;;;3.33;;
16310;SDS011;8264;48.510;8.872;2024-02-21T07:07:50;8.93;;;4.10;;
16310;SDS011;8264;48.510;8.872;2024-02-21T07:10:16;8.60;;;3.43;;
16310;SDS011;8264;48.510;8.872;2024-02-21T07:12:43;9.33;;;3.63;;
16310;SDS011;8264;48.510;8.872;2024-02-21T07:15:12;12.57;;;4.33;;
16310;SDS011;8264;48.510;8.872;2024-02-21T07:17:38;7.23;;;3.93;;
16310;SDS011;8264;48.510;8.872;2024-02-21T07:20:05;18.90;;;3.90;;
16310;SDS011;8264;48.510;8.872;2024-02-21T07:22:33;11.80;;;4.13;;
16310;SDS011;8264;48.510;8.872;2024-02-21T07:24:59;23.47;;;10.13;;
16310;SDS011;8264;48.510;8.872;2024-02-21T07:27:26;15.63;;;8.10;;
16310;SDS011;8264;48.510;8.872;2024-02-21T07:29:55;17.57;;;7.20;;
16310;SDS011;8264;48.510;8.872;2024-02-21T07:32:23;10.93;;;4.87;;
16310;SDS011;8264;48.510;8.872;2024-02-21T07:34:50;8.67;;;4.37;;
16310;SDS011;8264;48.510;8.872;2024-02-21T07:37:16;11.53;;;4.13;;
16310;SDS011;8264;48.510;8.872;2024-02-21T07:39:43;9.37;;;3.93;;
16310;SDS011;8264;48.510;8.872;2024-02-21T07:42:10;8.97;;;4.03;;
16310;SDS011;8264;48.510;8.872;2024-02-21T07:44:36;8.87;;;4.10;;
16310;SDS011;8264;48.510;8.872;2024-02-21T07:47:03;9.80;;;3.97;;
16310;SDS011;8264;48.510;8.872;2024-02-21T07:49:33;7.97;;;3.43;;
16310;SDS011;8264;48.510;8.872;2024-02-21T07:52:07;9.53;;;4.07;;
16310;SDS011;8264;48.510;8.872;2024-02-21T07:54:33;8.30;;;3.70;;
16310;SDS011;8264;48.510;8.872;2024-02-21T07:57:00;9.33;;;3.40;;
16310;SDS011;8264;48.510;8.872;2024-02-21T07:59:27;8.57;;;3.90;;
16310;SDS011;8264;48.510;8.872;2024-02-21T08:01:55;10.23;;;4.20;;
16310;SDS011;8264;48.510;8.872;2024-02-21T08:04:22;14.77;;;5.23;;
16310;SDS011;8264;48.510;8.872;2024-02-21T08:06:52;10.70;;;4.80;;
16310;SDS011;8264;48.510;8.872;2024-02-21T08:09:20;8.97;;;4.80;;
16310;SDS011;8264;48.510;8.872;2024-02-21T08:11:47;7.80;;;3.97;;
16310;SDS011;8264;48.510;8.872;2024-02-21T08:14:15;8.97;;;4.20;;
16310;SDS011;8264;48.510;8.872;2024-02-21T08:16:42;12.37;;;4.37;;
16310;SDS011;8264;48.510;8.872;2024-02-21T08:19:08;10.77;;;4.57;;
16310;SDS011;8264;48.510;8.872;2024-02-21T08:21:35;6.63;;;3.47;;
16310;SDS011;8264;48.510;8.872;2024-02-21T08:24:04;7.30;;;3.87;;
16310;SDS011;8264;48.510;8.872;2024-02-21T08:26:30;7.30;;;3.50;;
16310;SDS011;8264;48.510;8.872;2024-02-21T08:28:57;7.17;;;3.10;;
16310;SDS011;8264;48.510;8.872;2024-02-21T08:31:26;9.57;;;3.93;;
16310;SDS011;8264;48.510;8.872;2024-02-21T08:33:56;6.37;;;3.43;;
16310;SDS011;8264;48.510;8.872;2024-02-21T08:36:27;5.87;;;3.27;;
16310;SDS011;8264;48.510;8.872;2024-02-21T08:38:54;8.43;;;3.53;;
16310;SDS011;8264;48.510;8.872;2024-02-21T08:41:21;10.10;;;3.50;;
16310;SDS011;8264;48.510;8.872;2024-02-21T08:43:49;6.83;;;3.57;;
16310;SDS011;8264;48.510;8.872;2024-02-21T08:46:15;7.50;;;3.43;;
16310;SDS011;8264;48.510;8.872;2024-02-21T08:48:42;9.23;;;3.53;;
16310;SDS011;8264;48.510;8.872;2024-02-21T08:51:10;10.00;;;3.10;;
16310;SDS011;8264;48.510;8.872;2024-02-21T08:53:38;11.03;;;3.53;;
16310;SDS011;8264;48.510;8.872;2024-02-21T08:56:05;13.87;;;7.90;;
16310;SDS011;8264;48.510;8.872;2024-02-21T08:58:34;10.40;;;4.07;;
16310;SDS011;8264;48.510;8.872;2024-02-21T09:01:01;7.93;;;3.90;;
16310;SDS011;8264;48.510;8.872;2024-02-21T09:03:30;6.70;;;4.17;;
16310;SDS011;8264;48.510;8.872;2024-02-21T09:05:57;7.53;;;3.40;;
16310;SDS011;8264;48.510;8.872;2024-02-21T09:08:24;11.23;;;3.53;;
16310;SDS011;8264;48.510;8.872;2024-02-21T09:10:50;7.53;;;3.90;;
16310;SDS011;8264;48.510;8.872;2024-02-21T09:13:17;8.17;;;3.63;;
16310;SDS011;8264;48.510;8.872;2024-02-21T09:15:45;8.67;;;3.80;;
16310;SDS011;8264;48.510;8.872;2024-02-21T09:18:11;6.07;;;3.77;;
16310;SDS011;8264;48.510;8.872;2024-02-21T09:20:38;7.50;;;3.43;;
16310;SDS011;8264;48.510;8.872;2024-02-21T09:23:04;6.80;;;3.63;;
16310;SDS011;8264;48.510;8.872;2024-02-21T09:25:31;7.97;;;3.60;;
16310;SDS011;8264;48.510;8.872;2024-02-21T09:27:57;6.13;;;3.10;;
16310;SDS011;8264;48.510;8.872;2024-02-21T09:30:26;10.73;;;3.27;;
16310;SDS011;8264;48.510;8.872;2024-02-21T09:32:53;8.53;;;3.53;;
16310;SDS011;8264;48.510;8.872;2024-02-21T09:35:23;7.93;;;3.33;;
16310;SDS011;8264;48.510;8.872;2024-02-21T09:37:51;7.33;;;3.20;;
16310;SDS011;8264;48.510;8.872;2024-02-21T09:40:18;7.70;;;3.67;;
16310;SDS011;8264;48.510;8.872;2024-02-21T09:42:44;8.57;;;3.47;;
16310;SDS011;8264;48.510;8.872;2024-02-21T09:45:15;7.60;;;3.10;;
16310;SDS011;8264;48.510;8.872;2024-02-21T09:47:50;6.13;;;3.07;;
16310;SDS011;8264;48.510;8.872;2024-02-21T09:50:28;9.00;;;3.30;;
16310;SDS011;8264;48.510;8.872;2024-02-21T09:52:56;10.03;;;3.70;;
16310;SDS011;8264;48.510;8.872;2024-02-21T09:55:24;8.77;;;4.60;;
16310;SDS011;8264;48.510;8.872;2024-02-21T09:57:52;6.50;;;3.13;;
16310;SDS011;8264;48.510;8.872;2024-02-21T10:00:19;5.13;;;2.97;;
16310;SDS011;8264;48.510;8.872;2024-02-21T10:02:47;4.67;;;2.73;;
16310;SDS011;8264;48.510;8.872;2024-02-21T10:05:16;5.90;;;2.60;;
16310;SDS011;8264;48.510;8.872;2024-02-21T10:07:42;6.40;;;2.90;;
16310;SDS011;8264;48.510;8.872;2024-02-21T10:10:09;5.80;;;2.40;;
16310;SDS011;8264;48.510;8.872;2024-02-21T10:12:36;5.73;;;2.93;;
16310;SDS011;8264;48.510;8.872;2024-02-21T10:15:03;5.17;;;2.50;;
16310;SDS011;8264;48.510;8.872;2024-02-21T10:17:30;5.13;;;2.23;;
16310;SDS011;8264;48.510;8.872;2024-02-21T10:20:06;6.03;;;2.40;;
16310;SDS011;8264;48.510;8.872;2024-02-21T10:22:34;6.23;;;2.20;;
16310;SDS011;8264;48.510;8.872;2024-02-21T10:25:06;5.83;;;2.70;;
16310;SDS011;8264;48.510;8.872;2024-02-21T10:27:33;6.80;;;2.73;;
16310;SDS011;8264;48.510;8.872;2024-02-21T10:30:00;8.53;;;5.07;;
16310;SDS011;8264;48.510;8.872;2024-02-21T10:32:27;7.07;;;4.50;;
16310;SDS011;8264;48.510;8.872;2024-02-21T10:35:00;6.40;;;2.93;;
16310;SDS011;8264;48.510;8.872;2024-02-21T10:37:28;7.50;;;3.03;;
16310;SDS011;8264;48.510;8.872;2024-02-21T10:39:56;6.60;;;2.60;;
16310;SDS011;8264;48.510;8.872;2024-02-21T10:42:22;6.37;;;2.50;;
16310;SDS011;8264;48.510;8.872;2024-02-21T10:44:52;4.93;;;2.00;;
16310;SDS011;8264;48.510;8.872;2024-02-21T10:47:19;4.27;;;2.17;;
16310;SDS011;8264;48.510;8.872;2024-02-21T10:49:49;5.20;;;2.17;;
16310;SDS011;8264;48.510;8.872;2024-02-21T10:52:21;5.53;;;2.00;;
16310;SDS011;8264;48.510;8.872;2024-02-21T10:58:17;6.07;;;2.20;;
16310;SDS011;8264;48.510;8.872;2024-02-21T11:00:44;5.00;;;2.10;;
16310;SDS011;8264;48.510;8.872;2024-02-21T11:03:10;6.83;;;2.20;;
16310;SDS011;8264;48.510;8.872;2024-02-21T11:05:38;4.27;;;2.23;;
16310;SDS011;8264;48.510;8.872;2024-02-21T11:08:05;6.17;;;2.10;;
16310;SDS011;8264;48.510;8.872;2024-02-21T11:10:32;5.60;;;2.03;;
16310;SDS011;8264;48.510;8.872;2024-02-21T11:13:05;3.87;;;2.03;;
16310;SDS011;8264;48.510;8.872;2024-02-21T11:15:34;5.33;;;2.03;;
16310;SDS011;8264;48.510;8.872;2024-02-21T11:18:01;4.47;;;2.43;;
16310;SDS011;8264;48.510;8.872;2024-02-21T11:20:34;4.80;;;1.90;;
16310;SDS011;8264;48.510;8.872;2024-02-21T11:23:01;5.93;;;2.07;;
16310;SDS011;8264;48.510;8.872;2024-02-21T11:25:27;4.40;;;1.97;;
16310;SDS011;8264;48.510;8.872;2024-02-21T11:27:59;3.87;;;2.10;;
16310;SDS011;8264;48.510;8.872;2024-02-21T11:30:29;5.03;;;2.53;;
16310;SDS011;8264;48.510;8.872;2024-02-21T11:33:02;4.27;;;2.20;;
16310;SDS011;8264;48.510;8.872;2024-02-21T11:35:32;3.83;;;1.90;;
16310;SDS011;8264;48.510;8.872;2024-02-21T11:38:10;3.40;;;1.80;;
16310;SDS011;8264;48.510;8.872;2024-02-21T11:40:39;5.27;;;2.13;;
16310;SDS011;8264;48.510;8.872;2024-02-21T11:43:06;4.03;;;2.30;;
16310;SDS011;8264;48.510;8.872;2024-02-21T11:45:33;4.97;;;2.17;;
16310;SDS011;8264;48.510;8.872;2024-02-21T11:47:59;4.83;;;2.30;;
16310;SDS011;8264;48.510;8.872;2024-02-21T11:50:30;5.07;;;2.07;;
16310;SDS011;8264;48.510;8.872;2024-02-21T11:52:57;6.10;;;2.37;;
16310;SDS011;8264;48.510;8.872;2024-02-21T11:55:24;4.23;;;2.23;;
16310;SDS011;8264;48.510;8.872;2024-02-21T11:58:12;4.43;;;2.33;;
16310;SDS011;8264;48.510;8.872;2024-02-21T12:00:42;5.37;;;2.33;;
16310;SDS011;8264;48.510;8.872;2024-02-21T12:03:23;3.50;;;2.07;;
16310;SDS011;8264;48.510;8.872;2024-02-21T12:06:21;5.37;;;2.27;;
16310;SDS011;8264;48.510;8.872;2024-02-21T12:09:13;6.70;;;2.60;;
16310;SDS011;8264;48.510;8.872;2024-02-21T12:12:20;4.53;;;2.00;;
16310;SDS011;8264;48.510;8.872;2024-02-21T12:15:11;4.03;;;2.00;;
16310;SDS011;8264;48.510;8.872;2024-02-21T12:18:06;2.60;;;1.63;;
16310;SDS011;8264;48.510;8.872;2024-02-21T12:20:43;6.27;;;2.10;;
16310;SDS011;8264;48.510;8.872;2024-02-21T12:23:43;5.27;;;2.40;;
16310;SDS011;8264;48.510;8.872;2024-02-21T12:26:18;6.67;;;3.50;;
16310;SDS011;8264;48.510;8.872;2024-02-21T12:29:26;3.93;;;2.20;;
16310;SDS011;8264;48.510;8.872;2024-02-21T12:32:18;5.70;;;2.23;;
16310;SDS011;8264;48.510;8.872;2024-02-21T12:35:00;3.70;;;2.43;;
16310;SDS011;8264;48.510;8.872;2024-02-21T12:44:08;6.00;;;1.70;;
16310;SDS011;8264;48.510;8.872;2024-02-21T13:21:20;2.27;;;1.47;;
16310;SDS011;8264;48.510;8.872;2024-02-21T13:23:55;4.27;;;1.60;;
16310;SDS011;8264;48.510;8.872;2024-02-21T13:26:24;4.10;;;1.80;;
16310;SDS011;8264;48.510;8.872;2024-02-21T13:29:19;6.63;;;1.40;;
16310;SDS011;8264;48.510;8.872;2024-02-21T13:31:46;4.57;;;1.60;;
16310;SDS011;8264;48.510;8.872;2024-02-21T13:34:14;4.03;;;1.37;;
16310;SDS011;8264;48.510;8.872;2024-02-21T13:36:41;1.80;;;1.17;;
16310;SDS011;8264;48.510;8.872;2024-02-21T13:39:07;1.83;;;1.30;;
16310;SDS011;8264;48.510;8.872;2024-02-21T13:41:37;9.23;;;7.17;;
16310;SDS011;8264;48.510;8.872;2024-02-21T13:44:04;3.83;;;1.80;;
16310;SDS011;8264;48.510;8.872;2024-02-21T13:46:31;2.87;;;1.30;;
16310;SDS011;8264;48.510;8.872;2024-02-21T13:49:02;5.70;;;2.77;;
16310;SDS011;8264;48.510;8.872;2024-02-21T13:51:32;5.30;;;2.43;;
16310;SDS011;8264;48.510;8.872;2024-02-21T13:54:01;3.73;;;1.70;;
16310;SDS011;8264;48.510;8.872;2024-02-21T13:56:27;4.13;;;2.17;;
16310;SDS011;8264;48.510;8.872;2024-02-21T13:58:54;3.33;;;1.73;;
16310;SDS011;8264;48.510;8.872;2024-02-21T14:01:21;4.97;;;1.90;;
16310;SDS011;8264;48.510;8.872;2024-02-21T14:03:52;3.63;;;1.90;;
16310;SDS011;8264;48.510;8.872;2024-02-21T14:06:29;2.60;;;1.67;;
16310;SDS011;8264;48.510;8.872;2024-02-21T14:09:19;3.67;;;1.53;;
16310;SDS011;8264;48.510;8.872;2024-02-21T14:11:46;2.77;;;1.63;;
16310;SDS011;8264;48.510;8.872;2024-02-21T14:14:13;4.70;;;2.10;;
16310;SDS011;8264;48.510;8.872;2024-02-21T14:16:44;7.33;;;3.57;;
16310;SDS011;8264;48.510;8.872;2024-02-21T14:19:18;13.53;;;9.00;;
16310;SDS011;8264;48.510;8.872;2024-02-21T14:21:45;12.10;;;7.77;;
16310;SDS011;8264;48.510;8.872;2024-02-21T14:24:11;10.90;;;7.20;;
16310;SDS011;8264;48.510;8.872;2024-02-21T14:26:39;8.13;;;3.70;;
16310;SDS011;8264;48.510;8.872;2024-02-21T14:29:06;5.10;;;2.77;;
16310;SDS011;8264;48.510;8.872;2024-02-21T14:31:33;3.67;;;2.17;;
16310;SDS011;8264;48.510;8.872;2024-02-21T14:33:59;3.83;;;1.90;;
16310;SDS011;8264;48.510;8.872;2024-02-21T14:36:27;3.33;;;1.63;;
16310;SDS011;8264;48.510;8.872;2024-02-21T14:38:53;2.17;;;1.60;;
16310;SDS011;8264;48.510;8.872;2024-02-21T14:41:20;1.83;;;1.47;;
16310;SDS011;8264;48.510;8.872;2024-02-21T14:43:48;3.50;;;1.70;;
16310;SDS011;8264;48.510;8.872;2024-02-21T14:46:15;2.53;;;1.63;;
16310;SDS011;8264;48.510;8.872;2024-02-21T14:48:41;4.03;;;1.77;;
16310;SDS011;8264;48.510;8.872;2024-02-21T14:51:08;3.70;;;1.50;;
16310;SDS011;8264;48.510;8.872;2024-02-21T14:53:34;2.97;;;1.60;;
16310;SDS011;8264;48.510;8.872;2024-02-21T14:56:01;5.53;;;1.63;;
16310;SDS011;8264;48.510;8.872;2024-02-21T14:58:26;2.57;;;1.47;;
16310;SDS011;8264;48.510;8.872;2024-02-21T15:00:54;4.27;;;1.60;;
16310;SDS011;8264;48.510;8.872;2024-02-21T15:03:21;4.73;;;1.70;;
16310;SDS011;8264;48.510;8.872;2024-02-21T15:05:47;3.13;;;1.60;;
16310;SDS011;8264;48.510;8.872;2024-02-21T15:08:14;3.20;;;1.60;;
16310;SDS011;8264;48.510;8.872;2024-02-21T15:10:43;3.87;;;1.57;;
16310;SDS011;8264;48.510;8.872;2024-02-21T15:13:09;3.17;;;1.60;;
16310;SDS011;8264;48.510;8.872;2024-02-21T15:15:36;3.43;;;1.97;;
16310;SDS011;8264;48.510;8.872;2024-02-21T15:18:04;3.63;;;1.60;;
16310;SDS011;8264;48.510;8.872;2024-02-21T15:20:31;1.93;;;1.47;;
16310;SDS011;8264;48.510;8.872;2024-02-21T15:22:57;3.33;;;1.60;;
16310;SDS011;8264;48.510;8.872;2024-02-21T15:25:24;2.40;;;1.70;;
16310;SDS011;8264;48.510;8.872;2024-02-21T15:27:51;3.17;;;1.73;;
16310;SDS011;8264;48.510;8.872;2024-02-21T15:30:17;3.80;;;1.90;;
16310;SDS011;8264;48.510;8.872;2024-02-21T15:32:44;3.13;;;1.97;;
16310;SDS011;8264;48.510;8.872;2024-02-21T15:35:12;2.80;;;1.70;;
16310;SDS011;8264;48.510;8.872;2024-02-21T15:37:39;3.53;;;1.73;;
16310;SDS011;8264;48.510;8.872;2024-02-21T15:40:06;3.53;;;1.77;;
16310;SDS011;8264;48.510;8.872;2024-02-21T15:42:33;4.30;;;1.90;;
16310;SDS011;8264;48.510;8.872;2024-02-21T15:45:00;4.57;;;1.70;;
16310;SDS011;8264;48.510;8.872;2024-02-21T15:47:29;4.53;;;1.20;;
16310;SDS011;8264;48.510;8.872;2024-02-21T15:49:56;5.53;;;1.80;;